Time;durP1;ratioP1;P1;durP2;ratioP2;P2;SDS_P1;SDS_P2;PMS_P1;PMS_P2;Temp;Humidity;BMP_temperature;BMP_pressure;BME280_temperature;BME280_humidity;BME280_pressure;Samples;Min_cycle;Max_cycle;Signal;HPM_P1;HPM_P2
2022/11/01 00:00:00;;;;;;;29.65;15.75;;;11.20;99.90;;;;;;6248863;23;20004;-76
2022/11/01 00:02:26;;;;;;;28.35;15.15;;;11.20;99.90;;;;;;6265441;22;20004;-78
2022/11/01 00:04:52;;;;;;;33.15;16.73;;;11.20;99.90;;;;;;6285008;22;20012;-77
2022/11/01 00:07:18;;;;;;;32.22;16.70;;;11.20;99.90;;;;;;6287364;22;20008;-78
2022/11/01 00:09:43;;;;;;;34.45;15.05;;;11.20;99.90;;;;;;6287162;22;20007;-77
2022/11/01 00:12:09;;;;;;;29.92;14.90;;;11.20;99.90;;;;;;6287405;22;20045;-77
2022/11/01 00:14:35;;;;;;;26.33;14.27;;;11.20;99.90;;;;;;6285378;22;20011;-77
2022/11/01 00:17:01;;;;;;;22.45;13.32;;;11.20;99.90;;;;;;6287046;22;20003;-77
2022/11/01 00:19:28;;;;;;;24.45;12.68;;;11.20;99.90;;;;;;6291169;22;20006;-76
2022/11/01 00:21:54;;;;;;;19.98;10.27;;;11.20;99.90;;;;;;6288609;22;20019;-75
2022/11/01 00:24:19;;;;;;;21.23;10.30;;;11.20;99.90;;;;;;6289284;22;19999;-77
2022/11/01 00:26:45;;;;;;;20.60;11.57;;;11.20;99.90;;;;;;6263496;22;20014;-77
2022/11/01 00:29:11;;;;;;;17.27;9.70;;;11.20;99.90;;;;;;6288932;22;20031;-76
2022/11/01 00:31:37;;;;;;;20.40;10.68;;;11.20;99.90;;;;;;6285531;22;20008;-77
2022/11/01 00:34:04;;;;;;;23.38;11.88;;;11.20;99.90;;;;;;6285197;22;20008;-76
2022/11/01 00:36:31;;;;;;;20.08;11.65;;;11.20;99.90;;;;;;6283837;22;20000;-77
2022/11/01 00:38:57;;;;;;;20.58;11.95;;;11.20;99.90;;;;;;6288423;22;19999;-78
2022/11/01 00:41:23;;;;;;;26.30;13.25;;;11.20;99.90;;;;;;6286656;22;20007;-77
2022/11/01 00:43:49;;;;;;;26.08;14.38;;;11.20;99.90;;;;;;6259996;22;20014;-77
2022/11/01 00:46:15;;;;;;;26.23;14.55;;;11.20;99.90;;;;;;6287953;22;20023;-78
2022/11/01 00:48:41;;;;;;;23.42;13.73;;;11.20;99.90;;;;;;6284050;22;20464;-76
2022/11/01 00:51:06;;;;;;;26.05;14.30;;;11.10;99.90;;;;;;6280341;22;20008;-78
2022/11/01 00:53:32;;;;;;;27.85;14.63;;;11.10;99.90;;;;;;6283836;22;20012;-77
2022/11/01 00:56:02;;;;;;;25.48;13.68;;;11.10;99.90;;;;;;6285721;22;20006;-78
2022/11/01 00:58:28;;;;;;;22.15;12.25;;;11.10;99.90;;;;;;6280208;22;20007;-76
2022/11/01 01:00:54;;;;;;;25.10;13.32;;;11.10;99.90;;;;;;6277542;22;20000;-77
2022/11/01 01:03:20;;;;;;;22.45;12.20;;;11.10;99.90;;;;;;6277491;22;20102;-78
2022/11/01 01:05:48;;;;;;;22.15;12.90;;;11.00;99.90;;;;;;6277078;22;20030;-78
2022/11/01 01:08:14;;;;;;;21.85;11.88;;;11.00;99.90;;;;;;6276242;22;20061;-77
2022/11/01 01:10:40;;;;;;;22.60;13.45;;;11.00;99.90;;;;;;6277056;22;20377;-77
2022/11/01 01:13:05;;;;;;;20.63;11.40;;;11.00;99.90;;;;;;6277181;22;20460;-77
2022/11/01 01:15:31;;;;;;;22.17;12.20;;;11.10;99.90;;;;;;6277446;22;20004;-76
2022/11/01 01:17:57;;;;;;;22.88;12.45;;;11.10;99.90;;;;;;6276836;22;20038;-78
2022/11/01 01:20:23;;;;;;;22.33;12.50;;;11.10;99.90;;;;;;6276935;22;20028;-77
2022/11/01 01:22:49;;;;;;;19.98;11.88;;;11.10;99.90;;;;;;6277267;22;20097;-78
2022/11/01 01:25:15;;;;;;;23.83;13.90;;;11.10;99.90;;;;;;6276724;22;20006;-79
2022/11/01 01:27:41;;;;;;;25.23;12.50;;;11.10;99.90;;;;;;6277551;22;20341;-77
2022/11/01 01:30:07;;;;;;;23.05;11.90;;;11.10;99.90;;;;;;6276500;22;20031;-77
2022/11/01 01:32:33;;;;;;;21.30;12.25;;;11.00;99.90;;;;;;6275361;22;20426;-77
2022/11/01 01:34:59;;;;;;;23.33;13.02;;;11.10;99.90;;;;;;6277257;22;19999;-76
2022/11/01 01:37:24;;;;;;;20.83;12.25;;;11.00;99.90;;;;;;6277626;22;20107;-78
2022/11/01 01:39:50;;;;;;;20.35;11.70;;;11.10;99.90;;;;;;6281661;22;20426;-77
2022/11/01 01:42:27;;;;;;;22.15;12.60;;;11.10;99.90;;;;;;6284161;22;20008;-77
2022/11/01 01:44:56;;;;;;;22.98;12.48;;;11.10;99.90;;;;;;6281371;22;20008;-78
2022/11/01 01:47:23;;;;;;;25.25;12.85;;;11.10;99.90;;;;;;6281071;22;20007;-78
2022/11/01 01:50:06;;;;;;;19.25;12.57;;;11.10;99.90;;;;;;6283161;22;20003;-77
2022/11/01 01:52:36;;;;;;;21.45;12.55;;;11.10;99.90;;;;;;6279611;22;20098;-76
2022/11/01 01:55:05;;;;;;;22.27;12.10;;;11.10;99.90;;;;;;6280208;22;20058;-78
2022/11/01 01:57:32;;;;;;;24.67;12.80;;;11.10;99.90;;;;;;6277555;22;20020;-79
2022/11/01 01:59:57;;;;;;;27.00;14.35;;;11.10;99.90;;;;;;6277475;22;20023;-78
2022/11/01 02:02:24;;;;;;;25.45;14.07;;;11.10;99.90;;;;;;6278346;22;20055;-78
2022/11/01 02:04:59;;;;;;;23.17;13.20;;;11.10;99.90;;;;;;6279265;22;20015;-78
2022/11/01 02:07:25;;;;;;;21.38;12.05;;;11.10;99.90;;;;;;6277222;22;20003;-76
2022/11/01 02:09:53;;;;;;;20.65;11.80;;;11.10;99.90;;;;;;6278157;22;20007;-77
2022/11/01 02:12:18;;;;;;;22.70;12.10;;;11.10;99.90;;;;;;6278581;22;20028;-76
2022/11/01 02:14:45;;;;;;;19.05;10.88;;;11.10;99.90;;;;;;6277298;22;20445;-76
2022/11/01 02:17:23;;;;;;;21.65;11.60;;;11.10;99.90;;;;;;6280315;22;20054;-76
2022/11/01 02:19:49;;;;;;;23.52;11.40;;;11.10;99.90;;;;;;6280562;22;20019;-77
2022/11/01 02:22:28;;;;;;;24.10;12.25;;;11.10;99.90;;;;;;6276619;22;20050;-77
2022/11/01 02:25:20;;;;;;;19.20;10.48;;;11.10;99.90;;;;;;6277520;22;20081;-77
2022/11/01 02:28:14;;;;;;;22.92;10.73;;;11.20;99.90;;;;;;6279595;22;20004;-77
2022/11/01 02:30:44;;;;;;;22.45;11.13;;;11.20;99.90;;;;;;6279997;22;20007;-77
2022/11/01 02:33:27;;;;;;;22.05;9.77;;;11.20;99.90;;;;;;6279137;22;20082;-78
2022/11/01 02:35:57;;;;;;;19.95;10.48;;;11.20;99.90;;;;;;6280768;22;20503;-77
2022/11/01 02:38:46;;;;;;;18.83;10.55;;;11.20;99.90;;;;;;6282801;22;20007;-79
2022/11/01 02:41:27;;;;;;;25.30;11.38;;;11.20;99.90;;;;;;6279482;22;20091;-78
2022/11/01 02:44:03;;;;;;;19.30;10.77;;;11.20;99.90;;;;;;6279612;22;20078;-77
2022/11/01 02:49:24;;;;;;;21.52;11.70;;;11.20;99.90;;;;;;6279968;22;20166;-78
2022/11/01 02:51:51;;;;;;;21.05;11.13;;;11.20;99.90;;;;;;6279321;22;20007;-77
2022/11/01 02:54:21;;;;;;;20.17;10.95;;;11.20;99.90;;;;;;6280253;22;20095;-77
2022/11/01 02:56:48;;;;;;;23.92;12.30;;;11.20;99.90;;;;;;6284408;22;20479;-76
2022/11/01 02:59:22;;;;;;;24.13;13.68;;;11.20;99.90;;;;;;6281191;22;20444;-77
2022/11/01 03:02:04;;;;;;;24.30;13.20;;;11.20;99.90;;;;;;6282117;22;20426;-77
2022/11/01 03:04:30;;;;;;;25.20;13.18;;;11.20;99.90;;;;;;6278759;22;20004;-78
2022/11/01 03:06:59;;;;;;;30.55;12.90;;;11.20;99.90;;;;;;6279017;22;20002;-77
2022/11/01 03:09:27;;;;;;;25.70;14.05;;;11.20;99.90;;;;;;6282015;22;20000;-77
2022/11/01 03:12:24;;;;;;;26.92;13.55;;;11.20;99.90;;;;;;6282942;22;20433;-77
2022/11/01 03:15:02;;;;;;;26.25;13.43;;;11.20;99.90;;;;;;6282059;22;20007;-77
2022/11/01 03:17:40;;;;;;;25.45;14.50;;;11.30;99.90;;;;;;6285060;22;20011;-76
2022/11/01 03:20:14;;;;;;;26.00;14.07;;;11.20;99.90;;;;;;6282135;22;20000;-76
2022/11/01 03:22:49;;;;;;;24.42;12.38;;;11.20;99.90;;;;;;6282287;22;19999;-77
2022/11/01 03:25:39;;;;;;;27.55;14.10;;;11.20;99.90;;;;;;6279066;22;20007;-77
2022/11/01 03:28:22;;;;;;;32.10;14.95;;;11.20;99.90;;;;;;6279435;22;20008;-78
2022/11/01 03:31:01;;;;;;;29.63;14.52;;;11.20;99.90;;;;;;6283180;22;20059;-77
2022/11/01 03:33:29;;;;;;;29.65;15.23;;;11.20;99.90;;;;;;6285574;22;20012;-77
2022/11/01 03:36:01;;;;;;;32.22;15.02;;;11.20;99.90;;;;;;6282420;22;20336;-77
2022/11/01 03:38:31;;;;;;;25.63;13.45;;;11.20;99.90;;;;;;6281778;22;20023;-77
2022/11/01 03:41:03;;;;;;;27.25;14.07;;;11.30;99.90;;;;;;6284752;22;20003;-78
2022/11/01 03:43:31;;;;;;;24.83;14.38;;;11.20;99.90;;;;;;6286108;22;20030;-78
2022/11/01 03:45:57;;;;;;;24.70;13.68;;;11.30;99.90;;;;;;6281182;22;20030;-77
2022/11/01 03:48:23;;;;;;;25.48;14.45;;;11.30;99.90;;;;;;6280983;22;20007;-77
2022/11/01 03:50:55;;;;;;;28.95;15.43;;;11.30;99.90;;;;;;6280663;22;20072;-77
2022/11/01 03:53:21;;;;;;;27.25;14.77;;;11.30;99.90;;;;;;6277539;22;20012;-79
2022/11/01 03:55:47;;;;;;;31.85;14.88;;;11.30;99.90;;;;;;6276389;22;20004;-78
2022/11/01 03:58:13;;;;;;;27.55;14.73;;;11.30;99.90;;;;;;6276358;22;20491;-78
2022/11/01 04:00:43;;;;;;;31.45;15.73;;;11.30;99.90;;;;;;6279812;22;20067;-78
2022/11/01 04:03:10;;;;;;;28.73;15.27;;;11.30;99.90;;;;;;6279376;22;20053;-79
2022/11/01 04:05:37;;;;;;;32.70;14.48;;;11.40;99.90;;;;;;6278283;22;20007;-78
2022/11/01 04:08:04;;;;;;;31.33;14.90;;;11.40;99.90;;;;;;6280579;22;20003;-78
2022/11/01 04:10:30;;;;;;;32.30;15.77;;;11.40;99.90;;;;;;6284287;22;20060;-78
2022/11/01 04:12:57;;;;;;;27.05;14.07;;;11.40;99.90;;;;;;6284410;22;20014;-77
2022/11/01 04:21:06;;;;;;;28.25;14.95;;;11.40;99.90;;;;;;6279712;22;20048;-77
2022/11/01 04:23:32;;;;;;;32.22;16.15;;;11.40;99.90;;;;;;6278486;22;20012;-78
2022/11/01 04:25:58;;;;;;;31.65;15.45;;;11.40;99.90;;;;;;6282133;22;20385;-78
2022/11/01 04:28:24;;;;;;;31.20;16.23;;;11.40;99.90;;;;;;6277034;22;20004;-77
2022/11/01 04:30:50;;;;;;;30.10;14.82;;;11.40;99.90;;;;;;6282737;22;20089;-78
2022/11/01 04:33:16;;;;;;;32.65;14.18;;;11.40;99.90;;;;;;6280442;22;20012;-78
2022/11/01 04:35:42;;;;;;;25.27;14.48;;;11.40;99.90;;;;;;6282282;22;20351;-78
2022/11/01 04:38:09;;;;;;;31.30;14.52;;;11.40;99.90;;;;;;6282250;22;20008;-77
2022/11/01 04:40:35;;;;;;;26.45;14.52;;;11.40;99.90;;;;;;6284031;22;20007;-79
2022/11/01 04:43:01;;;;;;;28.42;14.68;;;11.40;99.90;;;;;;6285902;22;20004;-78
2022/11/01 04:45:27;;;;;;;28.63;13.82;;;11.40;99.90;;;;;;6283230;22;20564;-77
2022/11/01 04:48:06;;;;;;;25.08;14.23;;;11.30;99.90;;;;;;6285205;22;20003;-78
2022/11/01 04:50:33;;;;;;;24.65;13.82;;;11.30;99.90;;;;;;6283921;22;20237;-78
2022/11/01 04:52:59;;;;;;;26.58;13.70;;;11.30;99.90;;;;;;6284125;22;20011;-78
2022/11/01 04:55:27;;;;;;;27.27;14.00;;;11.30;99.90;;;;;;6282355;22;20004;-77
2022/11/01 04:57:53;;;;;;;30.08;14.68;;;11.30;99.90;;;;;;6282173;22;20003;-77
2022/11/01 05:00:19;;;;;;;31.02;14.30;;;11.30;99.90;;;;;;6285289;22;20000;-78
2022/11/01 05:02:44;;;;;;;26.67;13.77;;;11.30;99.90;;;;;;6283020;22;20432;-77
2022/11/01 05:05:11;;;;;;;27.17;14.27;;;11.30;99.90;;;;;;6279652;22;20019;-78
2022/11/01 05:07:37;;;;;;;27.13;13.75;;;11.30;99.90;;;;;;6282765;22;20019;-77
2022/11/01 05:10:03;;;;;;;25.98;14.50;;;11.40;99.90;;;;;;6281001;22;20020;-79
2022/11/01 05:12:30;;;;;;;30.50;14.70;;;11.40;99.90;;;;;;6283176;22;20023;-79
2022/11/01 05:14:55;;;;;;;29.08;15.20;;;11.40;99.90;;;;;;6281567;22;20003;-77
2022/11/01 05:17:21;;;;;;;31.02;15.30;;;11.40;99.90;;;;;;6284359;22;20419;-79
2022/11/01 05:19:47;;;;;;;30.38;14.68;;;11.40;99.90;;;;;;6286625;22;20038;-78
2022/11/01 05:22:13;;;;;;;26.88;14.35;;;11.40;99.90;;;;;;6282485;22;20004;-79
2022/11/01 05:24:39;;;;;;;29.38;15.05;;;11.40;99.90;;;;;;6280973;22;20004;-78
2022/11/01 05:27:05;;;;;;;28.85;14.55;;;11.40;99.90;;;;;;6282591;22;20000;-78
2022/11/01 05:29:32;;;;;;;27.05;13.65;;;11.50;99.90;;;;;;6287498;22;20024;-78
2022/11/01 05:31:58;;;;;;;27.88;14.45;;;11.40;99.90;;;;;;6284106;22;20505;-78
2022/11/01 05:34:23;;;;;;;25.30;14.85;;;11.50;99.90;;;;;;6282724;22;20001;-77
2022/11/01 05:36:49;;;;;;;28.48;14.10;;;11.50;99.90;;;;;;6284229;22;20010;-77
2022/11/01 05:39:15;;;;;;;26.88;14.23;;;11.50;99.90;;;;;;6283789;22;20003;-78
2022/11/01 05:41:42;;;;;;;25.30;13.82;;;11.60;99.90;;;;;;6284610;22;19996;-80
2022/11/01 05:44:07;;;;;;;31.02;15.23;;;11.60;99.90;;;;;;6284140;22;20010;-80
2022/11/01 05:46:34;;;;;;;31.33;15.45;;;11.60;99.90;;;;;;6285619;22;19999;-80
2022/11/01 05:49:00;;;;;;;30.95;14.90;;;11.60;99.90;;;;;;6296730;22;19996;-78
2022/11/01 05:51:25;;;;;;;27.30;14.18;;;11.60;99.90;;;;;;6303199;22;19998;-78
2022/11/01 05:53:51;;;;;;;33.35;14.35;;;11.60;99.90;;;;;;6299978;22;20018;-77
2022/11/01 05:56:17;;;;;;;29.92;13.75;;;11.60;99.90;;;;;;6287204;22;20000;-79
2022/11/01 05:58:45;;;;;;;29.52;15.05;;;11.60;99.90;;;;;;6292652;22;19988;-79
2022/11/01 06:01:10;;;;;;;33.28;14.20;;;11.60;99.90;;;;;;6289144;22;20047;-79
2022/11/01 06:03:38;;;;;;;28.58;14.13;;;11.60;99.90;;;;;;6292616;22;20024;-80
2022/11/01 06:08:40;;;;;;;28.73;15.50;;;11.60;99.90;;;;;;6304145;22;20083;-84
2022/11/01 06:11:13;;;;;;;30.80;15.90;;;11.60;99.90;;;;;;6253308;22;20011;-85
2022/11/01 06:13:41;;;;;;;32.75;17.58;;;11.60;99.90;;;;;;6278996;22;20007;-84
2022/11/01 06:16:10;;;;;;;32.05;16.52;;;11.60;99.90;;;;;;6282269;22;19995;-84
2022/11/01 06:18:37;;;;;;;35.05;17.40;;;11.60;99.90;;;;;;6309935;22;19991;-85
2022/11/01 06:21:10;;;;;;;32.47;16.25;;;11.60;99.90;;;;;;6310303;22;20144;-86
2022/11/01 06:23:55;;;;;;;34.33;15.93;;;11.60;99.90;;;;;;6336946;22;20015;-85
2022/11/01 06:26:22;;;;;;;28.67;16.13;;;11.70;99.90;;;;;;6309661;22;20059;-85
2022/11/01 06:28:55;;;;;;;35.72;17.83;;;11.70;99.90;;;;;;6309751;22;20018;-83
2022/11/01 06:31:21;;;;;;;32.53;17.00;;;11.70;99.90;;;;;;6310217;22;19999;-82
2022/11/01 06:33:50;;;;;;;34.78;17.70;;;11.70;99.90;;;;;;6310015;22;19995;-86
2022/11/01 06:36:17;;;;;;;32.30;16.27;;;11.80;99.90;;;;;;6284131;22;21009;-87
2022/11/01 06:41:43;;;;;;;34.17;16.45;;;11.80;99.90;;;;;;6336708;22;20051;-87
2022/11/01 06:44:09;;;;;;;32.25;16.02;;;11.80;99.90;;;;;;6309235;22;19994;-86
2022/11/01 06:46:36;;;;;;;29.08;16.23;;;11.80;99.90;;;;;;6282248;22;19999;-84
2022/11/01 06:49:37;;;;;;;33.67;16.73;;;11.80;99.90;;;;;;6309482;22;19991;-86
2022/11/01 06:53:06;;;;;;;29.13;15.82;;;11.80;99.90;;;;;;6299767;22;20021;-86
2022/11/01 06:56:03;;;;;;;28.48;15.00;;;11.80;99.90;;;;;;6248606;22;20010;-85
2022/11/01 06:59:07;;;;;;;27.13;15.20;;;11.80;99.90;;;;;;6315457;22;20072;-86
2022/11/01 07:02:12;;;;;;;31.02;15.63;;;11.80;99.90;;;;;;6336234;22;20073;-84
2022/11/01 07:04:55;;;;;;;28.63;15.35;;;11.80;99.90;;;;;;6251418;22;20063;-89
2022/11/01 07:07:53;;;;;;;30.23;15.00;;;11.90;99.90;;;;;;6307771;22;20041;-86
2022/11/01 07:11:23;;;;;;;35.50;16.90;;;11.90;99.90;;;;;;6309530;22;20083;-87
2022/11/01 07:13:58;;;;;;;33.75;16.73;;;11.90;99.90;;;;;;6306806;22;20014;-87
2022/11/01 07:16:34;;;;;;;35.08;18.13;;;11.90;99.90;;;;;;6301587;22;20030;-86
2022/11/01 07:19:16;;;;;;;;;;;;;;;;;;;;;
2022/11/01 07:21:48;;;;;;;37.58;18.70;;;11.90;99.90;;;;;;6333607;22;19999;-84
2022/11/01 07:24:17;;;;;;;35.58;19.63;;;11.90;99.90;;;;;;6336235;22;19995;-85
2022/11/01 07:27:01;;;;;;;35.53;18.98;;;11.90;99.90;;;;;;6309423;22;20018;-86
2022/11/01 07:29:41;;;;;;;;;;;;;;;;;;;;;
2022/11/01 07:32:12;;;;;;;34.30;18.20;;;11.90;99.90;;;;;;6310158;22;20005;-86
2022/11/01 07:34:41;;;;;;;36.63;17.42;;;11.90;99.90;;;;;;6310171;22;20010;-85
2022/11/01 07:37:27;;;;;;;35.25;17.52;;;12.00;99.90;;;;;;6310505;22;19995;-84
2022/11/01 07:39:53;;;;;;;34.92;18.48;;;12.00;99.90;;;;;;6336241;22;20082;-85
2022/11/01 07:42:23;;;;;;;36.28;18.05;;;12.00;99.90;;;;;;6309775;22;19995;-85
2022/11/01 07:44:56;;;;;;;39.28;17.30;;;12.00;99.90;;;;;;6285265;22;20065;-86
2022/11/01 07:47:33;;;;;;;37.97;17.17;;;12.10;99.90;;;;;;6336338;22;20019;-85
2022/11/01 07:50:05;;;;;;;38.83;17.60;;;12.00;99.90;;;;;;6284117;22;20014;-81
2022/11/01 07:52:31;;;;;;;40.33;19.40;;;12.10;99.90;;;;;;6309222;22;20085;-86
2022/11/01 07:54:57;;;;;;;39.13;19.75;;;12.10;99.90;;;;;;6308730;22;19987;-88
2022/11/01 07:57:25;;;;;;;39.22;19.10;;;12.10;99.90;;;;;;6304834;22;20041;-88
2022/11/01 07:59:51;;;;;;;35.35;18.90;;;12.10;99.90;;;;;;6274598;22;20258;-88
2022/11/01 08:02:20;;;;;;;31.45;17.70;;;12.20;99.90;;;;;;6331798;22;19994;-88
2022/11/01 08:04:48;;;;;;;37.40;19.05;;;12.20;99.90;;;;;;6281382;22;19987;-88
2022/11/01 08:07:19;;;;;;;39.60;18.10;;;12.20;99.90;;;;;;6307789;22;20491;-87
2022/11/01 08:09:46;;;;;;;39.80;20.50;;;12.20;99.90;;;;;;6280969;22;19995;-88
2022/11/01 08:12:14;;;;;;;31.67;17.17;;;12.20;99.90;;;;;;6331237;22;20003;-86
2022/11/01 08:14:39;;;;;;;39.58;19.20;;;12.20;99.90;;;;;;6304357;22;20006;-88
2022/11/01 08:17:07;;;;;;;40.38;19.52;;;12.30;99.90;;;;;;6301859;22;20008;-88
2022/11/01 08:19:32;;;;;;;37.15;19.08;;;12.30;99.90;;;;;;6301788;22;19994;-87
2022/11/01 08:22:27;;;;;;;40.17;19.85;;;12.30;99.90;;;;;;6303622;22;19999;-89
2022/11/01 08:24:53;;;;;;;39.67;20.10;;;12.30;99.90;;;;;;6237928;22;20028;-89
2022/11/01 08:27:19;;;;;;;37.60;20.60;;;12.30;99.90;;;;;;6277815;22;20293;-88
2022/11/01 08:29:46;;;;;;;39.45;18.80;;;12.40;99.90;;;;;;6329750;22;20029;-88
2022/11/01 08:32:12;;;;;;;34.78;19.08;;;12.50;99.90;;;;;;6305172;22;20011;-86
2022/11/01 08:34:38;;;;;;;31.77;17.77;;;12.50;99.90;;;;;;6302037;22;20007;-88
2022/11/01 08:37:04;;;;;;;33.38;17.63;;;12.40;99.90;;;;;;6304406;22;20093;-89
2022/11/01 08:39:31;;;;;;;31.23;17.17;;;12.40;99.90;;;;;;6306504;22;20039;-86
2022/11/01 08:41:58;;;;;;;33.63;16.42;;;12.50;99.90;;;;;;6309333;22;19999;-87
2022/11/01 08:44:24;;;;;;;30.67;16.40;;;12.50;99.90;;;;;;6283072;22;20011;-88
2022/11/01 08:46:52;;;;;;;33.20;16.25;;;12.50;99.90;;;;;;6277530;22;20006;-88
2022/11/01 08:49:18;;;;;;;30.83;16.17;;;12.50;99.90;;;;;;6306262;22;20015;-88
2022/11/01 08:52:11;;;;;;;30.50;16.20;;;12.50;99.90;;;;;;6308532;22;20007;-90
2022/11/01 08:54:42;;;;;;;30.48;14.90;;;12.50;99.90;;;;;;6328633;22;20007;-88
2022/11/01 08:57:08;;;;;;;33.25;16.40;;;12.50;99.90;;;;;;6275629;22;20048;-88
2022/11/01 08:59:34;;;;;;;27.40;15.75;;;12.50;99.90;;;;;;6328502;22;20362;-88
2022/11/01 09:02:00;;;;;;;29.13;15.45;;;12.50;99.90;;;;;;6300597;22;20003;-87
2022/11/01 09:04:26;;;;;;;29.92;15.70;;;12.50;99.90;;;;;;6274542;22;20011;-88
2022/11/01 09:06:51;;;;;;;29.95;15.07;;;12.50;99.90;;;;;;6301482;22;19999;-89
2022/11/01 09:09:17;;;;;;;26.60;15.05;;;12.50;99.90;;;;;;6299841;22;20082;-85
2022/11/01 09:11:43;;;;;;;30.67;15.10;;;12.50;99.90;;;;;;6326482;22;20332;-88
2022/11/01 09:14:09;;;;;;;33.13;14.27;;;12.60;99.90;;;;;;6300709;22;20006;-88
2022/11/01 09:16:35;;;;;;;30.85;14.45;;;12.70;99.90;;;;;;6328561;22;20007;-87
2022/11/01 09:19:01;;;;;;;25.17;14.57;;;12.70;99.90;;;;;;6303002;22;20000;-86
2022/11/01 09:21:30;;;;;;;31.83;15.07;;;12.70;99.90;;;;;;6303227;22;20035;-89
2022/11/01 09:23:57;;;;;;;26.20;14.10;;;12.70;99.90;;;;;;6302348;22;20010;-89
2022/11/01 09:26:26;;;;;;;27.63;15.32;;;12.70;99.90;;;;;;6301510;22;20120;-86
2022/11/01 09:28:57;;;;;;;30.15;14.90;;;12.80;99.90;;;;;;6308376;22;19995;-86
2022/11/01 09:31:23;;;;;;;24.75;14.75;;;12.70;99.90;;;;;;6308477;22;19991;-86
2022/11/01 09:33:52;;;;;;;28.92;14.20;;;12.70;99.90;;;;;;6300518;22;20007;-87
2022/11/01 09:36:18;;;;;;;27.35;14.45;;;12.40;99.90;;;;;;6296932;22;20008;-88
2022/11/01 09:38:44;;;;;;;25.40;14.27;;;12.30;99.90;;;;;;6323789;22;19999;-87
2022/11/01 09:41:29;;;;;;;24.02;13.50;;;12.40;99.90;;;;;;6297492;22;20063;-86
2022/11/01 09:43:58;;;;;;;29.35;14.35;;;12.40;99.90;;;;;;6295979;22;20071;-89
2022/11/01 09:46:30;;;;;;;28.55;15.43;;;12.40;99.90;;;;;;6324364;22;19999;-89
2022/11/01 09:48:58;;;;;;;31.75;16.92;;;12.40;99.90;;;;;;6329908;22;19999;-87
2022/11/01 09:51:24;;;;;;;26.17;13.63;;;12.40;99.90;;;;;;6304053;22;20003;-87
2022/11/01 09:53:54;;;;;;;23.48;12.57;;;12.50;99.90;;;;;;6303081;22;20011;-88
2022/11/01 09:56:50;;;;;;;23.90;12.98;;;12.70;99.90;;;;;;6276544;22;19983;-89
2022/11/01 09:59:18;;;;;;;23.42;13.43;;;12.80;99.90;;;;;;6302947;22;19995;-88
2022/11/01 10:02:01;;;;;;;25.08;12.60;;;13.00;99.90;;;;;;6305143;22;20016;-90
2022/11/01 10:04:43;;;;;;;25.90;13.30;;;13.20;99.90;;;;;;6325977;22;20000;-87
2022/11/01 10:07:31;;;;;;;28.13;14.68;;;13.30;99.90;;;;;;6324783;22;20003;-88
2022/11/01 10:10:15;;;;;;;28.90;15.63;;;13.30;99.90;;;;;;6298291;22;20053;-85
2022/11/01 10:13:15;;;;;;;29.48;14.82;;;13.30;99.90;;;;;;6325825;22;20014;-86
2022/11/01 10:16:25;;;;;;;28.42;15.20;;;13.10;99.90;;;;;;6327471;22;20059;-86
2022/11/01 10:19:14;;;;;;;28.88;14.98;;;13.00;99.90;;;;;;6298428;22;20426;-88
2022/11/01 10:21:59;;;;;;;27.58;14.88;;;12.90;99.90;;;;;;6328209;22;20003;-88
2022/11/01 10:25:08;;;;;;;28.63;16.33;;;12.90;99.90;;;;;;6278915;22;20003;-85
2022/11/01 10:28:25;;;;;;;30.35;16.13;;;13.00;99.90;;;;;;6277592;22;20079;-87
2022/11/01 10:31:22;;;;;;;27.45;15.65;;;13.10;99.90;;;;;;6303467;22;20017;-86
2022/11/01 10:34:08;;;;;;;29.23;17.25;;;13.20;99.90;;;;;;6295593;22;20074;-86
2022/11/01 10:36:38;;;;;;;32.40;18.95;;;13.30;99.90;;;;;;6299631;22;20019;-89
2022/11/01 10:39:45;;;;;;;42.65;20.05;;;13.30;99.90;;;;;;6305728;22;20013;-86
2022/11/01 10:42:14;;;;;;;46.53;22.77;;;13.30;99.90;;;;;;6334160;22;19991;-87
2022/11/01 10:44:45;;;;;;;37.78;22.40;;;13.30;99.90;;;;;;6308469;22;19996;-86
2022/11/01 10:47:15;;;;;;;43.28;22.83;;;13.30;99.90;;;;;;6283324;22;20030;-86
2022/11/01 10:49:47;;;;;;;40.28;22.83;;;13.50;99.90;;;;;;6282648;22;20003;-87
2022/11/01 10:52:16;;;;;;;39.45;22.90;;;13.60;99.90;;;;;;6308683;22;20074;-87
2022/11/01 10:54:43;;;;;;;40.45;22.83;;;13.60;99.90;;;;;;6309031;22;20012;-87
2022/11/01 10:57:19;;;;;;;39.33;22.92;;;13.70;99.90;;;;;;6283132;22;20022;-87
2022/11/01 10:59:51;;;;;;;39.83;22.40;;;13.50;99.90;;;;;;6283693;22;20013;-85
2022/11/01 11:02:34;;;;;;;36.55;20.67;;;13.50;99.90;;;;;;6285048;22;20110;-84
2022/11/01 11:05:00;;;;;;;;;;;13.60;99.90;;;;;;6309496;22;20017;-88
2022/11/01 11:07:30;;;;;;;32.97;20.02;;;13.80;99.90;;;;;;6308042;22;19934;-85
2022/11/01 11:09:56;;;;;;;37.30;19.63;;;13.90;99.90;;;;;;6308282;22;20023;-85
2022/11/01 11:12:24;;;;;;;33.60;20.33;;;14.10;99.90;;;;;;6334817;22;20003;-84
2022/11/01 11:15:02;;;;;;;38.78;20.80;;;14.20;99.90;;;;;;6308926;22;20025;-86
2022/11/01 11:17:42;;;;;;;35.22;20.15;;;14.30;99.90;;;;;;6282936;22;20087;-87
2022/11/01 11:20:09;;;;;;;34.85;18.92;;;14.80;99.90;;;;;;6308402;22;19998;-87
2022/11/01 11:22:38;;;;;;;33.97;18.65;;;15.10;99.90;;;;;;6280879;22;19999;-88
2022/11/01 11:25:07;;;;;;;27.73;18.67;;;15.30;99.90;;;;;;6306850;22;19996;-90
2022/11/01 11:27:33;;;;;;;27.75;19.17;;;15.50;99.90;;;;;;6334109;22;19991;-85
2022/11/01 11:30:04;;;;;;;29.15;18.27;;;15.40;99.90;;;;;;6334667;22;19999;-87
2022/11/01 11:32:33;;;;;;;32.10;19.15;;;15.40;99.90;;;;;;6308119;22;19995;-84
2022/11/01 11:35:07;;;;;;;30.42;18.33;;;15.60;99.90;;;;;;6283622;22;19996;-87
2022/11/01 11:37:34;;;;;;;;;;;15.80;99.90;;;;;;6308588;22;20025;-85
2022/11/01 11:40:04;;;;;;;29.63;15.68;;;15.80;99.90;;;;;;6308355;22;19890;-87
2022/11/01 11:42:32;;;;;;;26.90;16.73;;;15.70;99.90;;;;;;6336038;22;20040;-87
2022/11/01 11:45:28;;;;;;;26.15;15.65;;;16.00;99.90;;;;;;6309111;22;19983;-87
2022/11/01 11:48:19;;;;;;;28.35;13.43;;;17.50;99.90;;;;;;6283137;22;20007;-90
2022/11/01 11:50:45;;;;;;;22.30;12.93;;;19.30;99.90;;;;;;6308658;22;20004;-87
2022/11/01 11:53:21;;;;;;;21.65;11.55;;;21.00;99.90;;;;;;6309353;22;19998;-87
2022/11/01 11:55:59;;;;;;;20.40;10.98;;;21.10;99.90;;;;;;6308720;22;20011;-88
2022/11/01 11:58:47;;;;;;;16.65;10.35;;;20.60;99.90;;;;;;6281581;22;19995;-88
2022/11/01 12:01:20;;;;;;;20.05;11.35;;;20.00;99.90;;;;;;6335164;22;20011;-88
2022/11/01 12:03:53;;;;;;;19.60;11.40;;;19.50;99.90;;;;;;6335276;22;19992;-88
2022/11/01 12:08:53;;;;;;;19.38;10.73;;;18.70;99.90;;;;;;6294432;22;20024;-80
2022/11/01 12:11:21;;;;;;;21.08;11.85;;;18.40;99.90;;;;;;6300757;22;20008;-81
2022/11/01 12:14:02;;;;;;;24.48;12.68;;;18.20;99.90;;;;;;6274279;22;20015;-81
2022/11/01 12:16:28;;;;;;;22.33;12.88;;;18.00;99.90;;;;;;6283489;22;20004;-80
2022/11/01 12:18:56;;;;;;;18.08;10.63;;;17.90;99.90;;;;;;6280586;22;20342;-81
2022/11/01 12:21:26;;;;;;;18.77;9.57;;;17.80;99.90;;;;;;6281831;22;20000;-80
2022/11/01 12:23:58;;;;;;;13.60;8.65;;;17.80;99.90;;;;;;6262832;22;20030;-81
2022/11/01 12:26:26;;;;;;;19.92;7.90;;;17.80;99.90;;;;;;6297578;22;20011;-80
2022/11/01 12:28:59;;;;;;;9.88;5.88;;;17.80;99.90;;;;;;6243006;22;20000;-80
2022/11/01 12:31:26;;;;;;;10.45;6.35;;;17.50;99.90;;;;;;6268932;22;20042;-78
2022/11/01 12:34:17;;;;;;;9.82;6.05;;;17.10;99.90;;;;;;6269003;22;20440;-79
2022/11/01 12:36:52;;;;;;;14.05;6.85;;;17.00;99.90;;;;;;6296463;22;20008;-79
2022/11/01 12:39:48;;;;;;;10.48;5.80;;;17.00;99.90;;;;;;6295315;22;20031;-78
2022/11/01 12:42:29;;;;;;;11.13;6.45;;;17.00;99.90;;;;;;6229599;22;20042;-79
2022/11/01 12:45:25;;;;;;;12.95;6.97;;;17.00;99.90;;;;;;6297423;22;20007;-78
2022/11/01 12:48:02;;;;;;;12.73;7.28;;;16.90;99.90;;;;;;6217824;22;20007;-78
2022/11/01 12:50:32;;;;;;;15.35;7.72;;;16.80;99.90;;;;;;6296410;22;20011;-80
2022/11/01 12:53:11;;;;;;;21.42;9.07;;;16.80;99.90;;;;;;6262445;22;20018;-79
2022/11/01 12:55:39;;;;;;;14.65;9.00;;;16.80;99.90;;;;;;6260427;22;20012;-80
2022/11/01 12:58:16;;;;;;;16.23;8.63;;;16.60;99.90;;;;;;6266242;22;19995;-81
2022/11/01 13:01:07;;;;;;;15.43;8.88;;;16.50;99.90;;;;;;6295515;22;20004;-81
2022/11/01 13:03:51;;;;;;;15.10;8.07;;;16.40;99.90;;;;;;6262955;22;20604;-81
2022/11/01 13:06:37;;;;;;;16.70;8.20;;;16.40;99.90;;;;;;6265540;22;20034;-81
2022/11/01 13:09:13;;;;;;;12.90;8.88;;;16.30;99.90;;;;;;6206219;22;20440;-80
2022/11/01 13:12:01;;;;;;;12.10;7.93;;;16.30;99.90;;;;;;6293738;22;20004;-78